Terminal Aerodrome Forecast
Issued by NWS

Home | Current Version | Previous Version | Graphics & Text | Print | Product List | Glossary On
Versions: 1 2 3 4 5 6 7 8 9 10 11 12 13 14 15 16 17 18 19 20 21 22 23 24 25 26 27 28 29 30 31 32 33 34 35 36 37 38 39 40 41 42 43 44
000
FTUS43 KGRB 230200 AAA
TAFRHI
TAF AMD
KRHI 230220Z 2302/2324 VRB03KT 1SM BR OVC003
     FM230700 VRB03KT 1/2SM FG OVC002
      TEMPO 2309/2313 1/4SM FG
     FM231400 10006KT 4SM BR OVC004
     FM231600 10008KT 6SM BR OVC006=

USA.gov is the U.S. government's official web portal to all federal, state and local government web resources and services.